Time;durP1;ratioP1;P1;durP2;ratioP2;P2;SDS_P1;SDS_P2;PMS_P1;PMS_P2;Temp;Humidity;BMP_temperature;BMP_pressure;BME280_temperature;BME280_humidity;BME280_pressure;Samples;Min_cycle;Max_cycle;Signal;HPM_P1;HPM_P2
2021/01/20 00:00:45;;;;;;;6.10;4.20;;;;;;;;;;5057057;28;20211;-71
2021/01/20 00:03:12;;;;;;;8.07;4.37;;;;;;;;;;5057249;28;20233;-70
2021/01/20 00:05:39;;;;;;;7.47;4.50;;;;;;;;;;5057273;28;20234;-70
2021/01/20 00:08:06;;;;;;;10.63;4.60;;;;;;;;;;5057294;28;20286;-70
2021/01/20 00:10:34;;;;;;;8.93;4.73;;;;;;;;;;5056890;28;20227;-70
2021/01/20 00:13:01;;;;;;;8.33;4.53;;;;;;;;;;5057183;28;20290;-70
2021/01/20 00:15:28;;;;;;;5.00;3.87;;;;;;;;;;5057194;28;20230;-70
2021/01/20 00:17:55;;;;;;;7.87;4.77;;;;;;;;;;5060184;28;20718;-70
2021/01/20 00:20:22;;;;;;;6.23;4.10;;;;;;;;;;5060626;28;20210;-70
2021/01/20 00:22:49;;;;;;;5.73;4.40;;;;;;;;;;5060886;28;20235;-70
2021/01/20 00:25:17;;;;;;;5.53;4.07;;;;;;;;;;5060428;28;20313;-70
2021/01/20 00:27:45;;;;;;;5.63;3.80;;;;;;;;;;5060874;28;20202;-70
2021/01/20 00:30:12;;;;;;;6.13;4.20;;;;;;;;;;5060533;28;20241;-70
2021/01/20 00:32:39;;;;;;;10.27;4.60;;;;;;;;;;5060833;28;20266;-70
2021/01/20 00:35:07;;;;;;;6.10;4.27;;;;;;;;;;5060565;28;20218;-70
2021/01/20 00:37:36;;;;;;;7.83;4.13;;;;;;;;;;5060727;28;20254;-70
2021/01/20 00:40:03;;;;;;;5.40;3.80;;;;;;;;;;5059789;28;20243;-70
2021/01/20 00:42:30;;;;;;;5.33;4.20;;;;;;;;;;5060173;28;20662;-70
2021/01/20 00:44:58;;;;;;;5.00;3.73;;;;;;;;;;5060207;28;20250;-70
2021/01/20 00:47:25;;;;;;;4.70;3.70;;;;;;;;;;5060458;28;20217;-70
2021/01/20 00:49:52;;;;;;;7.57;4.07;;;;;;;;;;5060399;28;20207;-70
2021/01/20 00:52:19;;;;;;;6.53;4.17;;;;;;;;;;5060375;28;20289;-70
2021/01/20 00:54:46;;;;;;;4.60;3.33;;;;;;;;;;5060019;28;20310;-70
2021/01/20 00:57:13;;;;;;;10.57;3.80;;;;;;;;;;5060205;28;20211;-69
2021/01/20 00:59:40;;;;;;;6.27;3.80;;;;;;;;;;5060239;28;20238;-70
2021/01/20 01:02:08;;;;;;;6.63;3.40;;;;;;;;;;5059930;28;20258;-70
2021/01/20 01:04:36;;;;;;;5.43;3.13;;;;;;;;;;5060046;28;20231;-70
2021/01/20 01:07:03;;;;;;;6.80;3.20;;;;;;;;;;5060203;28;20206;-71
2021/01/20 01:09:30;;;;;;;5.87;3.00;;;;;;;;;;5059809;28;20229;-70
2021/01/20 01:11:57;;;;;;;7.37;3.30;;;;;;;;;;5059870;28;20203;-70
2021/01/20 01:14:24;;;;;;;5.27;3.10;;;;;;;;;;5059659;28;20258;-70
2021/01/20 01:16:51;;;;;;;6.00;3.23;;;;;;;;;;5059922;28;20294;-70
2021/01/20 01:19:19;;;;;;;5.93;3.17;;;;;;;;;;5059966;28;20206;-70
2021/01/20 01:21:46;;;;;;;7.40;3.10;;;;;;;;;;5059376;28;20219;-70
2021/01/20 01:24:13;;;;;;;4.03;3.57;;;;;;;;;;5059178;28;20263;-70
2021/01/20 01:26:40;;;;;;;3.67;2.97;;;;;;;;;;5060014;28;20721;-70
2021/01/20 01:29:07;;;;;;;6.57;3.07;;;;;;;;;;5058318;28;20662;-70
2021/01/20 01:31:34;;;;;;;5.90;3.63;;;;;;;;;;5059497;28;20662;-70
2021/01/20 01:34:02;;;;;;;5.43;3.30;;;;;;;;;;5059444;28;20234;-69
2021/01/20 01:36:29;;;;;;;6.13;3.03;;;;;;;;;;5052460;28;20565;-70
2021/01/20 01:38:56;;;;;;;8.50;3.03;;;;;;;;;;5059235;28;20227;-70
2021/01/20 01:41:23;;;;;;;8.00;4.07;;;;;;;;;;5058982;28;20263;-71
2021/01/20 01:43:56;;;;;;;5.40;3.07;;;;;;;;;;5059399;28;20210;-70
2021/01/20 01:46:24;;;;;;;6.60;3.60;;;;;;;;;;5059022;28;20210;-70
2021/01/20 01:48:52;;;;;;;7.77;3.40;;;;;;;;;;5059339;28;20293;-70
2021/01/20 01:51:20;;;;;;;3.63;2.90;;;;;;;;;;5059180;28;20199;-70
2021/01/20 01:53:49;;;;;;;6.60;3.23;;;;;;;;;;5059002;28;20280;-70
2021/01/20 01:56:16;;;;;;;4.53;3.00;;;;;;;;;;5058798;28;20272;-70
2021/01/20 01:58:43;;;;;;;7.03;3.17;;;;;;;;;;5059177;28;20722;-70
2021/01/20 02:01:10;;;;;;;6.30;2.53;;;;;;;;;;5059093;28;20203;-70
2021/01/20 02:03:37;;;;;;;9.27;3.40;;;;;;;;;;5059027;28;20215;-70
2021/01/20 02:06:05;;;;;;;6.47;3.23;;;;;;;;;;5058745;28;20254;-70
2021/01/20 02:08:32;;;;;;;9.33;3.10;;;;;;;;;;5059345;28;20290;-71
2021/01/20 02:11:07;;;;;;;5.10;3.40;;;;;;;;;;5058569;28;20214;-71
2021/01/20 02:13:37;;;;;;;8.43;2.93;;;;;;;;;;5059014;28;20210;-71
2021/01/20 02:16:07;;;;;;;6.33;2.80;;;;;;;;;;5058436;28;20769;-70
2021/01/20 02:18:36;;;;;;;8.40;2.97;;;;;;;;;;5058568;28;20211;-70
2021/01/20 02:21:21;;;;;;;8.67;3.13;;;;;;;;;;5058633;28;20283;-70
2021/01/20 02:23:49;;;;;;;7.67;3.33;;;;;;;;;;5058311;28;20238;-71
2021/01/20 02:26:23;;;;;;;5.83;2.90;;;;;;;;;;5058041;28;20261;-71
2021/01/20 02:29:06;;;;;;;7.07;2.83;;;;;;;;;;5058547;28;20285;-71
2021/01/20 02:31:34;;;;;;;10.77;3.30;;;;;;;;;;5058375;28;20668;-70
2021/01/20 02:34:02;;;;;;;8.97;2.73;;;;;;;;;;5058386;28;20206;-70
2021/01/20 02:36:30;;;;;;;9.50;2.67;;;;;;;;;;5051057;28;20579;-70
2021/01/20 02:39:00;;;;;;;4.63;2.63;;;;;;;;;;5057671;28;20231;-70
2021/01/20 02:41:27;;;;;;;6.63;2.17;;;;;;;;;;5057890;28;20266;-70
2021/01/20 02:43:55;;;;;;;8.03;2.53;;;;;;;;;;5057987;28;20694;-71
2021/01/20 02:46:22;;;;;;;4.97;2.70;;;;;;;;;;5057901;28;20213;-70
2021/01/20 02:48:51;;;;;;;5.60;2.40;;;;;;;;;;5057993;28;20646;-70
2021/01/20 02:51:33;;;;;;;5.53;2.63;;;;;;;;;;5057879;28;20289;-71
2021/01/20 02:54:01;;;;;;;7.63;3.10;;;;;;;;;;5058258;28;20289;-71
2021/01/20 02:56:28;;;;;;;6.10;2.33;;;;;;;;;;5057884;28;20245;-71
2021/01/20 02:58:56;;;;;;;4.17;2.23;;;;;;;;;;5058090;28;20289;-70
2021/01/20 03:01:24;;;;;;;3.13;2.43;;;;;;;;;;5057727;28;20253;-70
2021/01/20 03:03:53;;;;;;;3.87;2.30;;;;;;;;;;5057958;28;20218;-70
2021/01/20 03:06:21;;;;;;;7.43;2.23;;;;;;;;;;5057899;28;20214;-70
2021/01/20 03:08:49;;;;;;;3.80;2.40;;;;;;;;;;5057770;28;20234;-70
2021/01/20 03:11:16;;;;;;;6.13;2.37;;;;;;;;;;5057328;28;20285;-70
2021/01/20 03:13:44;;;;;;;4.70;2.60;;;;;;;;;;5057934;28;20237;-71
2021/01/20 03:16:11;;;;;;;4.60;2.53;;;;;;;;;;5057717;28;20317;-70
2021/01/20 03:18:38;;;;;;;3.90;2.23;;;;;;;;;;5057567;28;20293;-71
2021/01/20 03:21:06;;;;;;;6.10;2.40;;;;;;;;;;5057417;28;20198;-71
2021/01/20 03:23:36;;;;;;;4.97;2.13;;;;;;;;;;5057458;28;20284;-70
2021/01/20 03:26:03;;;;;;;5.83;2.17;;;;;;;;;;5057177;28;20369;-70
2021/01/20 03:28:29;;;;;;;7.57;3.07;;;;;;;;;;5057298;28;20312;-70
2021/01/20 03:30:57;;;;;;;4.13;2.27;;;;;;;;;;5057537;28;20206;-70
2021/01/20 03:33:24;;;;;;;6.80;3.07;;;;;;;;;;5057619;28;20195;-70
2021/01/20 03:35:51;;;;;;;8.50;2.43;;;;;;;;;;5057407;28;20267;-71
2021/01/20 03:38:19;;;;;;;4.50;2.20;;;;;;;;;;5057164;28;20334;-70
2021/01/20 03:40:46;;;;;;;5.60;2.40;;;;;;;;;;5057355;28;20684;-71
2021/01/20 03:43:13;;;;;;;6.13;2.70;;;;;;;;;;5057045;28;20227;-70
2021/01/20 03:45:40;;;;;;;6.50;2.23;;;;;;;;;;5057245;28;20725;-70
2021/01/20 03:48:07;;;;;;;7.70;2.80;;;;;;;;;;5057612;28;20238;-70
2021/01/20 03:50:34;;;;;;;5.93;2.30;;;;;;;;;;5057574;28;20214;-71
2021/01/20 03:53:01;;;;;;;6.50;2.47;;;;;;;;;;5060753;28;20206;-70
2021/01/20 03:55:29;;;;;;;5.10;1.93;;;;;;;;;;5061082;28;20302;-71
2021/01/20 03:57:56;;;;;;;2.50;2.20;;;;;;;;;;5061426;28;20271;-70
2021/01/20 04:00:23;;;;;;;5.93;2.37;;;;;;;;;;5061410;28;20207;-70
2021/01/20 04:02:50;;;;;;;6.00;2.30;;;;;;;;;;5061323;28;20233;-70
2021/01/20 04:05:17;;;;;;;9.30;2.83;;;;;;;;;;5060965;28;20596;-70
2021/01/20 04:07:44;;;;;;;9.70;3.00;;;;;;;;;;5060969;28;20750;-70
2021/01/20 04:10:12;;;;;;;5.60;2.10;;;;;;;;;;5060716;28;20572;-70
2021/01/20 04:12:39;;;;;;;5.23;2.70;;;;;;;;;;5060910;28;20272;-70
2021/01/20 04:15:07;;;;;;;4.50;1.97;;;;;;;;;;5061087;28;20263;-70
2021/01/20 04:17:34;;;;;;;5.73;2.13;;;;;;;;;;5060777;28;20297;-70
2021/01/20 04:20:02;;;;;;;7.57;2.37;;;;;;;;;;5060762;28;20203;-70
2021/01/20 04:22:29;;;;;;;3.53;2.00;;;;;;;;;;5060812;28;20254;-70
2021/01/20 04:24:56;;;;;;;3.27;2.03;;;;;;;;;;5060471;28;20258;-70
2021/01/20 04:27:23;;;;;;;2.20;1.90;;;;;;;;;;5060748;28;20228;-70
2021/01/20 04:29:51;;;;;;;8.97;2.00;;;;;;;;;;5060849;28;20207;-70
2021/01/20 04:32:18;;;;;;;4.97;2.10;;;;;;;;;;5060749;28;20230;-70
2021/01/20 04:34:45;;;;;;;4.60;2.47;;;;;;;;;;5060469;28;20652;-70
2021/01/20 04:37:12;;;;;;;3.43;2.13;;;;;;;;;;5060506;28;20237;-70
2021/01/20 04:39:39;;;;;;;9.30;2.47;;;;;;;;;;5060047;28;20724;-70
2021/01/20 04:42:07;;;;;;;4.43;2.00;;;;;;;;;;5060182;28;20230;-70
2021/01/20 04:44:35;;;;;;;6.07;2.63;;;;;;;;;;5060531;28;20279;-70
2021/01/20 04:47:05;;;;;;;5.60;2.30;;;;;;;;;;5060248;28;20209;-69
2021/01/20 04:49:34;;;;;;;5.40;2.07;;;;;;;;;;5060364;28;20245;-70
2021/01/20 04:52:02;;;;;;;5.17;2.10;;;;;;;;;;5060456;28;20209;-70
2021/01/20 04:54:30;;;;;;;7.17;2.90;;;;;;;;;;5060004;28;20230;-70
2021/01/20 04:56:57;;;;;;;6.30;2.30;;;;;;;;;;5060293;28;20203;-70
2021/01/20 04:59:27;;;;;;;6.10;2.20;;;;;;;;;;5060220;28;20207;-70
2021/01/20 05:01:55;;;;;;;6.67;2.00;;;;;;;;;;5060166;28;20223;-70
2021/01/20 05:04:23;;;;;;;2.80;1.83;;;;;;;;;;5060132;28;20292;-70
2021/01/20 05:06:50;;;;;;;7.07;1.97;;;;;;;;;;5059943;28;20229;-70
2021/01/20 05:09:17;;;;;;;6.17;2.10;;;;;;;;;;5059871;28;20241;-70
2021/01/20 05:11:44;;;;;;;3.43;1.90;;;;;;;;;;5059761;28;20199;-70
2021/01/20 05:14:12;;;;;;;3.80;1.97;;;;;;;;;;5059728;28;20303;-70
2021/01/20 05:16:39;;;;;;;9.07;2.20;;;;;;;;;;5059975;28;20203;-70
2021/01/20 05:19:06;;;;;;;2.67;1.80;;;;;;;;;;5059976;28;20210;-70
2021/01/20 05:21:34;;;;;;;6.13;2.53;;;;;;;;;;5059749;28;20206;-70
2021/01/20 05:24:16;;;;;;;7.83;2.00;;;;;;;;;;5059482;28;20207;-70
2021/01/20 05:26:44;;;;;;;3.33;2.20;;;;;;;;;;5059768;28;20218;-70
2021/01/20 05:29:11;;;;;;;3.23;1.80;;;;;;;;;;5059546;28;20298;-70
2021/01/20 05:31:38;;;;;;;5.50;2.10;;;;;;;;;;5059687;28;20257;-70
2021/01/20 05:34:05;;;;;;;3.10;1.93;;;;;;;;;;5059591;28;20214;-70
2021/01/20 05:36:32;;;;;;;4.00;1.70;;;;;;;;;;5059326;28;20229;-70
2021/01/20 05:39:00;;;;;;;6.13;1.73;;;;;;;;;;5058888;28;20281;-69
2021/01/20 05:41:27;;;;;;;7.20;2.10;;;;;;;;;;5059030;28;20210;-70
2021/01/20 05:43:55;;;;;;;4.43;1.90;;;;;;;;;;5058579;28;20215;-69
2021/01/20 05:46:29;;;;;;;5.47;2.03;;;;;;;;;;5059026;28;20207;-69
2021/01/20 05:48:57;;;;;;;6.77;2.07;;;;;;;;;;5057272;28;20700;-69
2021/01/20 05:51:24;;;;;;;5.13;2.20;;;;;;;;;;5058047;28;20712;-69
2021/01/20 05:53:51;;;;;;;4.67;2.10;;;;;;;;;;5057292;28;20199;-69
2021/01/20 05:56:25;;;;;;;6.10;2.57;;;;;;;;;;5057713;28;20207;-70
2021/01/20 05:58:52;;;;;;;6.27;1.80;;;;;;;;;;5056033;28;20229;-69
2021/01/20 06:01:20;;;;;;;3.50;1.67;;;;;;;;;;5057619;28;20646;-69
2021/01/20 06:03:48;;;;;;;4.93;2.40;;;;;;;;;;5057542;28;20282;-69
2021/01/20 06:06:15;;;;;;;4.80;1.50;;;;;;;;;;5057594;28;20199;-69
2021/01/20 06:08:43;;;;;;;3.47;1.57;;;;;;;;;;5057600;28;20662;-69
2021/01/20 06:11:09;;;;;;;5.07;1.97;;;;;;;;;;5057011;28;20210;-69
2021/01/20 06:13:38;;;;;;;12.43;2.50;;;;;;;;;;5057328;28;20277;-69
2021/01/20 06:16:15;;;;;;;2.90;1.67;;;;;;;;;;5057040;28;20305;-70
2021/01/20 06:18:46;;;;;;;3.07;1.50;;;;;;;;;;5057304;28;20241;-69
2021/01/20 06:21:15;;;;;;;4.53;1.70;;;;;;;;;;5057187;28;20277;-69
2021/01/20 06:23:44;;;;;;;4.13;2.13;;;;;;;;;;5057185;28;20237;-69
2021/01/20 06:26:13;;;;;;;5.37;1.47;;;;;;;;;;5057077;28;20225;-69
2021/01/20 06:28:46;;;;;;;6.87;2.60;;;;;;;;;;5056952;28;20290;-69
2021/01/20 06:31:14;;;;;;;4.33;2.27;;;;;;;;;;5055229;28;20199;-69
2021/01/20 06:33:41;;;;;;;5.87;1.77;;;;;;;;;;5057087;28;20198;-69
2021/01/20 06:36:08;;;;;;;3.67;2.00;;;;;;;;;;5054536;28;20241;-69
2021/01/20 06:38:36;;;;;;;8.30;3.13;;;;;;;;;;5056450;28;20223;-70
2021/01/20 06:41:05;;;;;;;3.17;2.20;;;;;;;;;;5055491;28;20231;-70
2021/01/20 06:43:36;;;;;;;7.93;2.00;;;;;;;;;;5055731;28;20250;-69
2021/01/20 06:46:15;;;;;;;4.17;1.90;;;;;;;;;;5055378;28;20260;-69
2021/01/20 06:49:10;;;;;;;8.30;2.40;;;;;;;;;;5054526;28;20222;-70
2021/01/20 06:51:38;;;;;;;3.27;1.47;;;;;;;;;;5018420;28;20203;-70
2021/01/20 06:54:09;;;;;;;3.67;1.73;;;;;;;;;;5055823;28;20201;-69
2021/01/20 06:56:38;;;;;;;4.73;2.10;;;;;;;;;;5054783;28;20195;-70
2021/01/20 06:59:26;;;;;;;6.20;1.93;;;;;;;;;;5056110;28;20745;-70
2021/01/20 07:02:09;;;;;;;7.03;2.20;;;;;;;;;;5050941;28;20199;-69
2021/01/20 07:05:04;;;;;;;5.30;2.17;;;;;;;;;;5053835;28;20242;-69
2021/01/20 07:08:01;;;;;;;3.90;2.03;;;;;;;;;;5054985;28;20667;-70
2021/01/20 07:10:47;;;;;;;5.80;1.80;;;;;;;;;;5054654;28;20473;-70
2021/01/20 07:13:17;;;;;;;2.77;1.83;;;;;;;;;;5055506;28;20199;-70
2021/01/20 07:15:45;;;;;;;7.10;1.80;;;;;;;;;;5055803;28;20229;-70
2021/01/20 07:18:14;;;;;;;7.80;1.80;;;;;;;;;;5055517;28;20298;-69
2021/01/20 07:20:42;;;;;;;5.77;1.90;;;;;;;;;;5056566;28;20301;-70
2021/01/20 07:23:10;;;;;;;3.40;1.70;;;;;;;;;;5057061;28;20227;-69
2021/01/20 07:25:37;;;;;;;2.13;1.70;;;;;;;;;;5055172;28;20229;-70
2021/01/20 07:28:05;;;;;;;3.50;1.57;;;;;;;;;;5055325;28;20569;-70
2021/01/20 07:30:32;;;;;;;4.30;2.40;;;;;;;;;;5056376;28;20381;-70
2021/01/20 07:32:59;;;;;;;2.57;1.63;;;;;;;;;;5056612;28;20573;-70
2021/01/20 07:35:28;;;;;;;3.87;1.33;;;;;;;;;;5056353;28;20314;-69
2021/01/20 07:37:59;;;;;;;7.13;1.80;;;;;;;;;;5028716;28;787965;-70
2021/01/20 07:40:27;;;;;;;3.23;1.60;;;;;;;;;;5056151;28;20650;-70
2021/01/20 07:42:54;;;;;;;7.33;1.80;;;;;;;;;;5057326;28;20314;-70
2021/01/20 07:45:35;;;;;;;6.70;1.50;;;;;;;;;;5057527;28;20769;-70
2021/01/20 07:48:02;;;;;;;6.00;1.77;;;;;;;;;;5057269;28;20242;-70
2021/01/20 07:50:38;;;;;;;6.53;1.80;;;;;;;;;;5057321;28;20644;-70
2021/01/20 07:53:05;;;;;;;9.43;1.80;;;;;;;;;;5057170;28;20308;-69
2021/01/20 07:55:32;;;;;;;2.33;1.60;;;;;;;;;;5056988;28;20223;-70
2021/01/20 07:58:00;;;;;;;4.30;1.77;;;;;;;;;;5055159;28;20210;-70
2021/01/20 08:00:28;;;;;;;2.93;1.43;;;;;;;;;;5055332;28;20206;-70
2021/01/20 08:02:56;;;;;;;3.33;1.30;;;;;;;;;;5055350;28;20254;-69
2021/01/20 08:05:30;;;;;;;4.23;2.03;;;;;;;;;;5055334;28;20226;-70
2021/01/20 08:08:04;;;;;;;5.83;1.87;;;;;;;;;;5055841;28;20241;-70
2021/01/20 08:10:31;;;;;;;6.00;1.60;;;;;;;;;;5055260;28;20207;-70
2021/01/20 08:12:59;;;;;;;4.53;1.50;;;;;;;;;;5056857;28;20239;-69
2021/01/20 08:15:27;;;;;;;6.13;1.50;;;;;;;;;;5057056;28;20223;-70
2021/01/20 08:17:55;;;;;;;4.00;1.80;;;;;;;;;;5057247;28;20238;-70
2021/01/20 08:20:23;;;;;;;4.77;1.80;;;;;;;;;;5057346;28;20203;-71
2021/01/20 08:22:50;;;;;;;6.27;1.57;;;;;;;;;;5057022;28;20322;-71
2021/01/20 08:25:22;;;;;;;6.30;1.80;;;;;;;;;;5056687;28;20227;-72
2021/01/20 08:27:49;;;;;;;4.93;1.67;;;;;;;;;;5057331;28;20207;-72
2021/01/20 08:30:31;;;;;;;4.27;1.40;;;;;;;;;;5057187;28;20294;-72
2021/01/20 08:32:58;;;;;;;3.63;1.33;;;;;;;;;;5054842;28;20242;-72
2021/01/20 08:35:27;;;;;;;4.10;1.50;;;;;;;;;;5056802;28;20219;-72
2021/01/20 08:37:54;;;;;;;5.80;1.33;;;;;;;;;;5058145;28;20207;-72
2021/01/20 08:40:22;;;;;;;6.27;1.80;;;;;;;;;;5060376;28;20217;-70
2021/01/20 08:42:49;;;;;;;9.07;1.87;;;;;;;;;;5060329;28;20227;-71
2021/01/20 08:45:17;;;;;;;7.83;2.90;;;;;;;;;;5060300;28;20298;-70
2021/01/20 08:47:49;;;;;;;10.80;1.67;;;;;;;;;;5060591;28;20238;-70
2021/01/20 08:50:18;;;;;;;4.10;1.40;;;;;;;;;;5060219;28;20304;-68
2021/01/20 08:52:46;;;;;;;4.77;1.63;;;;;;;;;;5060446;28;20271;-69
2021/01/20 08:55:28;;;;;;;4.37;1.33;;;;;;;;;;5058699;28;20310;-68
2021/01/20 08:58:14;;;;;;;5.37;1.20;;;;;;;;;;5059015;28;20237;-69
2021/01/20 09:00:41;;;;;;;4.23;1.50;;;;;;;;;;5059852;28;20658;-67
2021/01/20 09:03:12;;;;;;;5.27;1.30;;;;;;;;;;5060001;28;20310;-68
2021/01/20 09:05:39;;;;;;;11.93;3.50;;;;;;;;;;5059657;28;20559;-68
2021/01/20 09:08:06;;;;;;;3.90;1.33;;;;;;;;;;5060089;28;20213;-68
2021/01/20 09:10:34;;;;;;;4.37;1.20;;;;;;;;;;5059863;28;20264;-68
2021/01/20 09:13:01;;;;;;;6.30;1.67;;;;;;;;;;5059934;28;20202;-68
2021/01/20 09:15:28;;;;;;;3.50;1.40;;;;;;;;;;5060456;28;20305;-68
2021/01/20 09:17:55;;;;;;;6.80;1.67;;;;;;;;;;5060489;28;20718;-68
2021/01/20 09:20:22;;;;;;;6.00;1.30;;;;;;;;;;5060067;28;20215;-68
2021/01/20 09:22:49;;;;;;;4.40;1.67;;;;;;;;;;5058416;28;20237;-67
2021/01/20 09:25:16;;;;;;;5.20;1.67;;;;;;;;;;5059074;28;20265;-68
2021/01/20 09:27:44;;;;;;;6.47;1.60;;;;;;;;;;5058960;28;20211;-67
2021/01/20 09:30:12;;;;;;;4.30;1.57;;;;;;;;;;5057235;28;20543;-68
2021/01/20 09:32:39;;;;;;;7.93;2.13;;;;;;;;;;5058489;28;20289;-68
2021/01/20 09:35:11;;;;;;;6.30;1.70;;;;;;;;;;5056658;28;20214;-67
2021/01/20 09:37:38;;;;;;;7.10;2.00;;;;;;;;;;5058560;28;20294;-68
2021/01/20 09:40:07;;;;;;;3.73;1.80;;;;;;;;;;5058240;28;20270;-68
2021/01/20 09:42:35;;;;;;;11.50;1.70;;;;;;;;;;5058284;28;20227;-68
2021/01/20 09:45:03;;;;;;;2.57;1.50;;;;;;;;;;5058415;28;20578;-68
2021/01/20 09:47:30;;;;;;;4.30;1.70;;;;;;;;;;5056236;28;20320;-67
2021/01/20 09:49:57;;;;;;;6.77;1.40;;;;;;;;;;5057249;28;20663;-67
2021/01/20 09:52:26;;;;;;;3.63;1.47;;;;;;;;;;5057996;28;20209;-67
2021/01/20 09:54:54;;;;;;;5.67;1.90;;;;;;;;;;5057667;28;20281;-66
2021/01/20 09:57:21;;;;;;;2.07;1.33;;;;;;;;;;5058065;28;20217;-67
2021/01/20 09:59:48;;;;;;;6.73;1.77;;;;;;;;;;5057222;28;20211;-70
2021/01/20 10:02:16;;;;;;;5.23;1.60;;;;;;;;;;5057803;28;20238;-66
2021/01/20 10:04:44;;;;;;;4.73;1.33;;;;;;;;;;5057995;28;20249;-67
2021/01/20 10:07:11;;;;;;;4.33;1.60;;;;;;;;;;5058794;28;20207;-66
2021/01/20 10:09:39;;;;;;;3.87;1.50;;;;;;;;;;5058491;28;20206;-67
2021/01/20 10:12:06;;;;;;;8.43;1.80;;;;;;;;;;5058231;28;20244;-66
2021/01/20 10:14:33;;;;;;;1.67;1.00;;;;;;;;;;5057824;28;20223;-67
2021/01/20 10:17:00;;;;;;;5.57;1.30;;;;;;;;;;5058126;28;20285;-68
2021/01/20 10:19:28;;;;;;;2.23;1.20;;;;;;;;;;5058094;28;20273;-68
2021/01/20 10:21:55;;;;;;;4.67;1.70;;;;;;;;;;5052237;28;20230;-67
2021/01/20 10:24:22;;;;;;;6.30;1.30;;;;;;;;;;5057392;28;20700;-66
2021/01/20 10:26:49;;;;;;;4.43;1.37;;;;;;;;;;5058002;28;20230;-66
2021/01/20 10:29:16;;;;;;;5.50;1.80;;;;;;;;;;5057314;28;20294;-68
2021/01/20 10:31:44;;;;;;;4.80;1.30;;;;;;;;;;5058139;28;20242;-70
2021/01/20 10:34:13;;;;;;;5.57;1.37;;;;;;;;;;5057736;28;20245;-67
2021/01/20 10:36:41;;;;;;;6.23;1.17;;;;;;;;;;5057223;28;20207;-69
2021/01/20 10:39:09;;;;;;;4.07;1.70;;;;;;;;;;5057151;28;20273;-68
2021/01/20 10:41:36;;;;;;;4.13;1.50;;;;;;;;;;5057718;28;20202;-69
2021/01/20 10:44:03;;;;;;;3.47;1.10;;;;;;;;;;5057309;28;20353;-68
2021/01/20 10:46:30;;;;;;;4.77;1.17;;;;;;;;;;5056772;28;20203;-69
2021/01/20 10:48:59;;;;;;;3.00;1.33;;;;;;;;;;5057220;28;20393;-70
2021/01/20 10:51:28;;;;;;;3.30;1.30;;;;;;;;;;5057342;28;20219;-68
2021/01/20 10:53:56;;;;;;;5.17;1.53;;;;;;;;;;5056845;28;20573;-70
2021/01/20 10:56:24;;;;;;;4.27;1.20;;;;;;;;;;5056326;28;20207;-69
2021/01/20 10:58:51;;;;;;;3.97;1.83;;;;;;;;;;5057207;28;20249;-69
2021/01/20 11:01:18;;;;;;;1.73;1.17;;;;;;;;;;5056977;28;20203;-71
2021/01/20 11:03:45;;;;;;;2.40;1.07;;;;;;;;;;5057002;28;20286;-71
2021/01/20 11:06:12;;;;;;;5.57;1.30;;;;;;;;;;5057058;28;20230;-70
2021/01/20 11:08:39;;;;;;;2.63;0.87;;;;;;;;;;5056868;28;20210;-69
2021/01/20 11:11:07;;;;;;;2.73;0.97;;;;;;;;;;5056930;28;20202;-70
2021/01/20 11:13:34;;;;;;;2.50;1.07;;;;;;;;;;5056794;28;20741;-70
2021/01/20 11:16:02;;;;;;;1.20;0.90;;;;;;;;;;5056465;28;20223;-69
2021/01/20 11:18:32;;;;;;;4.90;0.97;;;;;;;;;;5056968;28;20714;-69
2021/01/20 11:21:00;;;;;;;4.27;1.17;;;;;;;;;;5056756;28;20282;-70
2021/01/20 11:23:35;;;;;;;4.30;1.53;;;;;;;;;;5054256;28;20653;-69
2021/01/20 11:26:02;;;;;;;3.90;1.10;;;;;;;;;;5056161;28;20305;-69
2021/01/20 11:28:34;;;;;;;2.53;1.17;;;;;;;;;;5056459;28;20249;-69
2021/01/20 11:31:01;;;;;;;10.07;1.90;;;;;;;;;;5056148;28;20264;-69
2021/01/20 11:33:36;;;;;;;3.50;1.00;;;;;;;;;;5056520;28;20669;-70
2021/01/20 11:36:04;;;;;;;7.13;1.70;;;;;;;;;;5056061;28;20246;-68
2021/01/20 11:38:32;;;;;;;4.03;1.00;;;;;;;;;;5056157;28;20592;-69
2021/01/20 11:40:58;;;;;;;10.70;2.17;;;;;;;;;;5055790;28;20207;-67
2021/01/20 11:43:28;;;;;;;9.63;2.03;;;;;;;;;;5053900;28;20223;-70
2021/01/20 11:45:57;;;;;;;6.37;1.03;;;;;;;;;;5054438;28;20280;-70
2021/01/20 11:48:24;;;;;;;1.60;0.90;;;;;;;;;;5056171;28;20286;-69
2021/01/20 11:50:51;;;;;;;4.93;1.40;;;;;;;;;;5053729;28;20638;-70
2021/01/20 11:53:22;;;;;;;4.00;1.00;;;;;;;;;;5055101;28;20767;-70
2021/01/20 11:55:49;;;;;;;3.70;1.23;;;;;;;;;;5055456;28;20244;-71
2021/01/20 11:58:16;;;;;;;5.10;1.23;;;;;;;;;;5056164;28;20635;-69
2021/01/20 12:00:42;;;;;;;4.37;1.30;;;;;;;;;;5056273;28;20210;-70
2021/01/20 12:03:10;;;;;;;7.80;1.57;;;;;;;;;;5056664;28;20223;-70
2021/01/20 12:05:38;;;;;;;4.33;1.03;;;;;;;;;;5056892;28;20230;-70
2021/01/20 12:08:05;;;;;;;4.57;1.40;;;;;;;;;;5056263;28;20543;-70
2021/01/20 12:10:32;;;;;;;1.57;1.13;;;;;;;;;;5056565;28;20206;-71
2021/01/20 12:12:59;;;;;;;6.20;1.30;;;;;;;;;;5057574;28;20191;-70
2021/01/20 12:15:26;;;;;;;8.17;1.53;;;;;;;;;;5060126;28;20222;-70
2021/01/20 12:17:53;;;;;;;2.23;1.17;;;;;;;;;;5058942;28;20203;-69
2021/01/20 12:20:21;;;;;;;3.30;1.17;;;;;;;;;;5058978;28;20211;-71
2021/01/20 12:22:48;;;;;;;4.60;1.43;;;;;;;;;;5059487;28;20191;-71
2021/01/20 12:25:15;;;;;;;4.77;1.50;;;;;;;;;;5059336;28;20225;-71
2021/01/20 12:27:42;;;;;;;3.87;1.13;;;;;;;;;;5059588;28;20206;-69
2021/01/20 12:30:11;;;;;;;4.57;1.50;;;;;;;;;;5059955;28;20237;-67
2021/01/20 12:32:41;;;;;;;4.57;1.40;;;;;;;;;;5057505;28;20202;-67
2021/01/20 12:35:09;;;;;;;2.63;1.00;;;;;;;;;;5058716;28;20231;-68
2021/01/20 12:37:55;;;;;;;1.33;1.00;;;;;;;;;;5059420;28;20202;-67
2021/01/20 12:40:22;;;;;;;4.97;1.10;;;;;;;;;;5059669;28;20566;-67
2021/01/20 12:42:49;;;;;;;4.63;1.67;;;;;;;;;;5059435;28;20234;-67
2021/01/20 12:45:16;;;;;;;3.40;0.80;;;;;;;;;;5059173;28;20223;-68
2021/01/20 12:47:43;;;;;;;6.63;1.33;;;;;;;;;;5059027;28;20195;-68
2021/01/20 12:50:10;;;;;;;6.30;1.30;;;;;;;;;;5059460;28;20209;-67
2021/01/20 12:52:37;;;;;;;5.13;1.33;;;;;;;;;;5059402;28;20287;-66
2021/01/20 12:55:06;;;;;;;2.07;1.20;;;;;;;;;;5058818;28;20600;-67
2021/01/20 12:57:33;;;;;;;7.90;1.47;;;;;;;;;;5059200;28;20641;-67
2021/01/20 13:00:00;;;;;;;4.27;1.30;;;;;;;;;;5058879;28;20313;-67
2021/01/20 13:02:28;;;;;;;3.40;0.77;;;;;;;;;;5056810;28;20199;-67
2021/01/20 13:04:56;;;;;;;2.60;1.10;;;;;;;;;;5058488;28;20227;-68
2021/01/20 13:07:23;;;;;;;3.00;1.07;;;;;;;;;;5059015;28;20202;-68
2021/01/20 13:09:57;;;;;;;4.93;1.60;;;;;;;;;;5059132;28;20206;-67
2021/01/20 13:12:25;;;;;;;5.73;1.50;;;;;;;;;;5051441;28;20563;-68
2021/01/20 13:14:52;;;;;;;4.83;1.70;;;;;;;;;;5058878;28;20246;-68
2021/01/20 13:17:19;;;;;;;6.17;1.67;;;;;;;;;;5059180;28;20677;-68
2021/01/20 13:19:46;;;;;;;4.17;1.40;;;;;;;;;;5058879;28;20260;-68
2021/01/20 13:22:13;;;;;;;1.93;1.13;;;;;;;;;;5058760;28;20199;-68
2021/01/20 13:24:40;;;;;;;7.77;1.23;;;;;;;;;;5057430;28;20772;-68
2021/01/20 13:27:08;;;;;;;3.40;1.30;;;;;;;;;;5058691;28;20238;-68
2021/01/20 13:29:36;;;;;;;3.33;1.10;;;;;;;;;;5058597;28;20290;-68
2021/01/20 13:32:08;;;;;;;4.53;1.37;;;;;;;;;;5058260;28;20213;-67
2021/01/20 13:34:35;;;;;;;5.03;1.60;;;;;;;;;;5054719;28;20227;-67
2021/01/20 13:37:18;;;;;;;6.13;1.47;;;;;;;;;;5058828;28;20253;-68
2021/01/20 13:39:45;;;;;;;2.93;1.40;;;;;;;;;;5057703;28;20234;-67
2021/01/20 13:42:12;;;;;;;3.27;1.63;;;;;;;;;;5058291;28;20282;-67
2021/01/20 13:44:40;;;;;;;3.03;1.30;;;;;;;;;;5057965;28;20682;-67
2021/01/20 13:47:07;;;;;;;2.03;1.10;;;;;;;;;;5058684;28;20213;-68
2021/01/20 13:49:34;;;;;;;4.23;1.00;;;;;;;;;;5058643;28;20215;-68
2021/01/20 13:52:01;;;;;;;5.53;1.10;;;;;;;;;;5058636;28;20269;-68
2021/01/20 13:54:28;;;;;;;5.00;1.53;;;;;;;;;;5055793;28;20277;-68
2021/01/20 13:56:55;;;;;;;5.07;1.07;;;;;;;;;;5057727;28;20209;-67
2021/01/20 13:59:22;;;;;;;5.40;1.20;;;;;;;;;;5058140;28;20207;-68
2021/01/20 14:01:50;;;;;;;8.77;1.53;;;;;;;;;;5055638;28;20317;-67
2021/01/20 14:04:17;;;;;;;2.50;1.03;;;;;;;;;;5057018;28;20261;-68
2021/01/20 14:06:45;;;;;;;4.60;1.50;;;;;;;;;;5058269;28;20210;-68
2021/01/20 14:09:12;;;;;;;3.90;0.93;;;;;;;;;;5058619;28;20217;-68
2021/01/20 14:11:39;;;;;;;3.63;1.13;;;;;;;;;;5058427;28;20207;-68
2021/01/20 14:14:06;;;;;;;2.43;0.97;;;;;;;;;;5058218;28;20199;-68
2021/01/20 14:16:35;;;;;;;6.17;0.87;;;;;;;;;;5058228;28;20226;-67
2021/01/20 14:19:04;;;;;;;3.07;1.10;;;;;;;;;;5057435;28;20229;-67
2021/01/20 14:21:31;;;;;;;5.70;1.47;;;;;;;;;;5057362;28;20203;-66
2021/01/20 14:23:58;;;;;;;4.07;1.10;;;;;;;;;;5058816;28;20313;-67
2021/01/20 14:26:35;;;;;;;3.37;1.20;;;;;;;;;;5064266;28;20203;-67
2021/01/20 14:29:02;;;;;;;7.30;1.20;;;;;;;;;;5062905;28;20213;-67
2021/01/20 14:31:29;;;;;;;5.53;1.77;;;;;;;;;;5059357;28;20270;-67
2021/01/20 14:33:56;;;;;;;3.90;1.10;;;;;;;;;;5058933;28;20277;-67
2021/01/20 14:36:25;;;;;;;3.27;1.30;;;;;;;;;;5057844;28;20207;-67
2021/01/20 14:38:54;;;;;;;3.30;0.87;;;;;;;;;;5059069;28;20226;-67
2021/01/20 14:41:21;;;;;;;2.67;1.07;;;;;;;;;;5056678;28;20237;-67
2021/01/20 14:43:48;;;;;;;5.00;1.53;;;;;;;;;;5056910;28;20661;-65
2021/01/20 14:46:15;;;;;;;3.17;1.20;;;;;;;;;;5055695;28;20647;-67
2021/01/20 14:48:42;;;;;;;10.13;2.00;;;;;;;;;;5056430;28;20209;-66
2021/01/20 14:51:09;;;;;;;1.77;0.90;;;;;;;;;;5056858;28;20222;-66